KFWS

Fort Worth Spinks Airport

Fort Worth, Texas, USA
METAR KFWS 151552Z 32010KT 10SM CLR 08/M04 A3025
Observed Flight Rules
Dec-15 @ 15:52 UTC (27 minutes ago) Visual Flight Rules
Wind Visibility Clouds
320° at 10 knots 10 miles
  • Clear skies
Temperatures Readings
Current 8°C / 46°F
Dewpoint -4°C / 25°F
Humidity 43%
Altimeter 30.25" Hg
Pressure 1024 hPa
Elevation 208
METAR KFWS 151552Z 32010KT 10SM CLR 08/M04 A3025
Observed Flight Rules
Dec-15 @ 15:52 UTC
(27 minutes ago)
VFR
Wind Visibility
320° at 10 knots 10 miles
Clouds
  • Clear skies
Temperature Dewpoint
8°C / 46°F -4°C / 25°F
Humidity Altimeter Pressure
43% 30.25" Hg 1024 hPa